Latest Weather Observations for Walpeup

IDV60801

Issued at 7:22 am EST Monday 28 September 2020 (issued every 10 minutes, with the page automatically refreshed every 10 minutes)

About weather observations | Map of weather stations | Latest weather observations for VIC | Other Formats
Station Details ID: 076064 Name: WALPEUP RESEARCH Lat: -35.12 Lon: 142.00 Height: 105.0 m
Data from the previous 72 hours. | See also: Recent months at Walpeup
Date/Time
EST
Temp
°C
App
Temp
°C
Dew
Point
°C
Rel
Hum
%
Delta-T
°C
Wind Press
QNH
hPa
Press
MSL
hPa
Rain since
9am
mm
Dir  Spd
km/h
Gust
km/h
Spd
kts
Gust
kts
28/07:00am 5.6 1.3 1.2 73 1.7 E 13 19 7 10 - - -
28/06:30am 4.5 0.1 0.6 76 1.5 E 13 17 7 9 - - -
28/06:00am 4.7 0.7 0.7 75 1.6 E 11 17 6 9 - - -
28/05:30am 4.9 1.0 0.9 75 1.6 E 11 19 6 10 - - -
28/05:00am 5.1 0.8 1.0 75 1.6 E 13 17 7 9 - - -
28/04:30am 5.4 1.1 1.0 73 1.7 E 13 19 7 10 - - -
28/04:00am 5.8 1.9 1.3 73 1.8 E 11 17 6 9 - - -
28/03:30am 6.0 2.1 1.3 72 1.9 E 11 17 6 9 - - -
28/03:00am 6.1 2.3 1.6 73 1.8 E 11 15 6 8 - - 0.0
28/02:30am 6.2 2.8 1.7 73 1.8 E 9 15 5 8 - - -
28/02:00am 6.8 3.0 1.5 69 2.1 E 11 17 6 9 - - -
28/01:30am 7.6 3.8 1.9 67 2.4 E 11 15 6 8 - - -
28/01:00am 8.4 5.0 1.8 63 2.7 E 9 13 5 7 - - -
28/12:30am 9.1 5.7 2.0 61 3.0 E 9 15 5 8 - - -
28/12:00am 9.6 6.6 2.2 60 3.1 ESE 7 13 4 7 - - -
 
Date/Time
EST
Temp
°C
App
Temp
°C
Dew
Point
°C
Rel
Hum
%
Delta-T
°C
Wind Press
QNH
hPa
Press
MSL
hPa
Rain since
9am
mm
Dir  Spd
km/h
Gust
km/h
Spd
kts
Gust
kts
27/11:30pm 10.1 7.2 2.7 60 3.2 ESE 7 13 4 7 - - -
27/11:00pm 10.9 8.4 3.5 60 3.3 SE 6 7 3 4 - - -
27/10:30pm 12.0 9.4 4.0 58 3.6 ESE 7 11 4 6 - - -
27/10:00pm 11.2 8.8 4.2 62 3.2 ENE 6 7 3 4 - - -
27/09:30pm 12.0 9.6 4.5 60 3.4 E 6 6 3 3 - - -
27/09:00pm 12.1 9.7 4.3 59 3.5 E 6 7 3 4 - - 0.0
27/08:30pm 12.0 9.6 4.5 60 3.4 ESE 6 7 3 4 - - -
27/08:00pm 12.4 10.0 4.1 57 3.8 ESE 6 6 3 3 - - -
27/07:30pm 13.4 11.0 4.3 54 4.2 ESE 6 7 3 4 - - -
27/07:00pm 14.2 12.2 4.5 52 4.5 E 4 6 2 3 - - -
27/06:30pm 14.9 12.3 4.3 49 4.9 SE 7 13 4 7 - - -
27/06:00pm 15.7 13.1 4.4 47 5.3 ESE 7 11 4 6 - - -
27/05:30pm 15.8 12.8 3.9 45 5.5 ESE 9 13 5 7 - - -
27/05:00pm 16.0 12.6 3.8 44 5.7 S 11 17 6 9 - - -
27/04:30pm 16.6 13.7 2.6 39 6.4 WSW 7 19 4 10 - - -
27/04:00pm 16.1 13.6 3.9 44 5.7 SSW 6 13 3 7 - - -
27/03:30pm 15.9 13.4 4.9 48 5.2 S 7 13 4 7 - - -
27/03:00pm 15.8 12.9 4.5 47 5.3 SSW 9 17 5 9 - - -
27/02:30pm 15.9 13.7 5.2 49 5.1 WNW 6 15 3 8 - - -
27/02:00pm 15.3 13.1 5.2 51 4.8 SSW 6 15 3 8 - - -
27/01:30pm 15.1 11.8 4.8 50 4.8 SSW 11 20 6 11 - - -
27/01:00pm 15.8 13.6 5.4 50 5.0 SSW 6 13 3 7 - - -
27/12:30pm 14.5 11.7 5.0 53 4.5 SSW 9 17 5 9 - - -
27/12:00pm 14.5 11.7 5.3 54 4.4 SW 9 15 5 8 - - -
27/11:30am 13.8 10.6 5.2 56 4.0 S 11 17 6 9 - - -
27/11:00am 13.6 10.5 5.5 58 3.8 SSW 11 17 6 9 - - -
27/10:30am 13.1 10.0 5.5 60 3.6 SW 11 20 6 11 - - -
27/10:00am 12.4 9.4 5.8 64 3.1 SSW 11 17 6 9 - - 0.0
27/09:30am 12.4 9.4 7.5 72 2.4 SW 13 20 7 11 - - 0.0
27/09:00am 10.9 8.7 9.5 91 0.7 SW 11 20 6 11 - - 0.0
27/08:30am 7.9 6.3 7.9 100 0.0 W 6 9 3 5 - - 0.0
27/08:00am 5.7 3.6 5.7 100 0.0 WNW 6 7 3 4 - - 0.0
27/07:30am 4.5 2.5 4.5 100 0.0 WNW 4 6 2 3 - - 0.0
27/07:00am 2.8 0.1 2.7 99 0.0 NW 6 6 3 3 - - 0.0
27/06:30am 2.3 0.3 2.2 99 0.0 WNW 2 6 1 3 - - 0.0
27/06:00am 1.9 -0.6 1.8 99 0.0 WNW 4 4 2 2 - - 0.0
27/05:30am 1.8 -1.1 1.7 99 0.0 NW 6 6 3 3 - - 0.0
27/05:00am 3.0 0.7 2.9 99 0.0 WNW 4 4 2 2 - - 0.0
27/04:30am 3.1 0.8 3.0 99 0.0 WSW 4 6 2 3 - - 0.0
27/04:00am 2.9 0.6 2.8 99 0.0 WNW 4 4 2 2 - - 0.0
27/03:30am 2.7 0.3 2.4 98 0.1 WNW 4 6 2 3 - - 0.0
27/03:00am 2.1 -0.8 1.4 95 0.3 WNW 6 6 3 3 - - 0.0
27/02:30am 3.6 0.9 2.9 95 0.3 W 6 6 3 3 - - 0.0
27/02:00am 4.4 1.9 3.7 95 0.3 W 6 6 3 3 - - 0.0
27/01:30am 4.1 1.8 2.9 92 0.5 W 4 6 2 3 - - 0.0
27/01:00am 4.8 2.6 3.6 92 0.5 W 4 6 2 3 - - 0.0
27/12:30am 5.1 2.4 3.9 92 0.5 SW 7 11 4 6 - - 0.0
27/12:00am 5.0 2.2 3.3 89 0.7 SW 7 9 4 5 - - 0.0
 
Date/Time
EST
Temp
°C
App
Temp
°C
Dew
Point
°C
Rel
Hum
%
Delta-T
°C
Wind Press
QNH
hPa
Press
MSL
hPa
Rain since
9am
mm
Dir  Spd
km/h
Gust
km/h
Spd
kts
Gust
kts
26/11:30pm 5.5 2.9 3.3 86 0.9 WSW 6 9 3 5 - - 0.0
26/11:00pm 5.2 2.9 2.6 83 1.1 W 4 4 2 2 - - 0.0
26/10:30pm 6.5 4.0 3.5 81 1.3 SW 6 7 3 4 - - 0.0
26/10:00pm 7.4 4.3 3.8 78 1.6 WSW 9 13 5 7 - - 0.0
26/09:30pm 7.4 4.4 4.2 80 1.4 SW 9 11 5 6 - - 0.0
26/09:00pm 7.8 4.7 3.8 76 1.7 WSW 9 11 5 6 - - 0.0
26/08:30pm 9.1 5.4 4.3 72 2.1 WSW 13 17 7 9 - - 0.0
26/08:00pm 9.5 5.7 3.7 67 2.5 WSW 13 19 7 10 - - 0.0
26/07:30pm 10.2 6.3 3.5 63 2.9 WSW 13 17 7 9 - - 0.0
26/07:00pm 12.1 7.4 3.3 55 3.9 WSW 17 24 9 13 - - 0.0
26/06:30pm 12.4 8.9 3.6 55 3.9 W 11 19 6 10 - - 0.0
26/06:00pm 12.8 8.4 2.9 51 4.4 W 15 24 8 13 - - 0.0
26/05:30pm 13.5 9.3 3.8 52 4.4 W 15 20 8 11 - - 0.0
26/05:00pm 14.2 9.0 3.7 49 4.8 W 20 30 11 16 - - 0.0
26/04:30pm 14.3 9.2 3.2 47 5.0 WSW 19 30 10 16 - - 0.0
26/04:00pm 14.2 9.3 4.2 51 4.6 W 19 32 10 17 - - 0.0
26/03:30pm 15.5 10.3 2.7 42 5.8 WSW 19 24 10 13 - - 0.0
26/03:00pm 13.0 8.1 4.2 55 4.0 SW 19 28 10 15 - - 0.0
26/02:30pm 15.9 10.6 2.0 39 6.2 WSW 19 30 10 16 - - 0.0
26/02:00pm 14.8 9.6 2.4 43 5.5 WSW 19 28 10 15 - - 0.0
26/01:30pm 13.9 8.3 1.5 43 5.4 WSW 20 28 11 15 - - 0.0
26/01:00pm 14.5 8.8 0.7 39 5.9 WSW 20 32 11 17 - - 0.0
26/12:30pm 13.8 7.8 1.1 42 5.5 SW 22 33 12 18 - - 0.0
26/12:00pm 14.1 8.5 1.1 41 5.6 SW 20 32 11 17 - - 0.0
26/11:30am 13.8 7.9 1.8 44 5.2 SW 22 37 12 20 - - 0.0
26/11:00am 12.8 6.1 1.5 46 4.9 SW 26 35 14 19 - - 0.0
26/10:30am 13.0 6.8 2.3 48 4.7 SW 24 35 13 19 - - 0.0
26/10:00am 11.6 5.4 2.4 53 4.0 WSW 24 33 13 18 - - 0.0
26/09:30am 10.4 4.4 3.2 61 3.1 SW 24 37 13 20 - - 0.0
26/09:00am 9.6 4.9 5.0 73 2.1 WSW 19 30 10 16 - - 0.6
26/08:30am 7.7 3.1 6.5 92 0.6 WSW 20 28 11 15 - - -
26/08:00am 6.0 2.6 6.0 100 0.0 W 13 20 7 11 - - -
26/07:30am 4.3 0.9 4.2 99 0.0 W 11 15 6 8 - - -
26/07:00am 2.9 0.0 2.8 99 0.0 W 7 9 4 5 - - -
26/06:30am 2.5 -0.8 2.4 99 0.0 W 9 13 5 7 - - -
26/06:00am 2.3 -1.0 2.2 99 0.0 W 9 13 5 7 - - -
26/05:30am 2.5 -1.2 2.4 99 0.0 W 11 15 6 8 - - -
26/05:00am 2.4 -1.3 2.3 99 0.0 W 11 15 6 8 - - -
26/04:30am 2.7 -0.6 2.6 99 0.0 WNW 9 11 5 6 - - -
26/04:00am 3.0 -0.6 2.9 99 0.0 WNW 11 17 6 9 - - -
26/03:30am 3.5 -0.1 3.2 98 0.1 W 11 17 6 9 - - -
26/03:00am 4.0 0.1 3.4 96 0.2 W 13 20 7 11 - - -
26/02:30am 4.4 0.1 3.5 94 0.4 W 15 20 8 11 - - -
26/02:00am 5.0 0.8 4.0 93 0.4 W 15 24 8 13 - - -
26/01:30am 5.3 0.8 4.4 94 0.4 W 17 26 9 14 - - -
26/01:00am 5.4 1.0 4.8 96 0.3 W 17 26 9 14 - - -
26/12:30am 5.4 0.7 5.0 97 0.2 W 19 24 10 13 - - -
26/12:00am 5.4 1.1 5.1 98 0.1 W 17 26 9 14 - - 0.4
 
Date/Time
EST
Temp
°C
App
Temp
°C
Dew
Point
°C
Rel
Hum
%
Delta-T
°C
Wind Press
QNH
hPa
Press
MSL
hPa
Rain since
9am
mm
Dir  Spd
km/h
Gust
km/h
Spd
kts
Gust
kts
25/11:30pm 5.1 0.7 4.7 97 0.2 W 17 22 9 12 - - 0.4
25/11:00pm 5.3 1.3 4.9 97 0.2 WNW 15 24 8 13 - - 0.4
25/10:30pm 5.3 0.9 4.6 95 0.3 WNW 17 24 9 13 - - 0.4
25/10:00pm 5.0 0.8 4.0 93 0.4 WNW 15 22 8 12 - - 0.4
25/09:30pm 4.8 0.5 3.0 88 0.7 WNW 15 17 8 9 - - 0.4
25/09:00pm 5.4 1.4 2.8 83 1.1 WNW 13 17 7 9 - - 0.4
25/08:30pm 6.5 2.2 3.1 79 1.4 W 15 22 8 12 - - 0.4
25/08:00pm 7.2 2.1 3.1 75 1.7 W 19 26 10 14 - - 0.4
25/07:30pm 7.8 3.1 2.9 71 2.1 W 17 22 9 12 - - 0.4
25/07:00pm 8.0 3.6 2.7 69 2.2 W 15 22 8 12 - - 0.4
25/06:30pm 8.7 3.6 3.3 69 2.3 W 19 30 10 16 - - 0.4
25/06:00pm 8.8 4.3 4.0 72 2.1 W 17 24 9 13 - - 0.4
25/05:30pm 10.2 4.0 2.1 57 3.4 SW 24 33 13 18 - - 0.4
25/05:00pm 12.4 4.6 -0.5 41 5.3 WSW 30 48 16 26 - - 0.4
25/04:30pm 11.1 6.0 4.3 63 3.1 W 20 37 11 20 - - 0.4
25/04:18pm 11.6 3.0 0.4 46 4.6 WSW 35 56 19 30 - - 0.4
25/04:00pm 12.1 3.8 -0.4 42 5.1 SW 33 46 18 25 - - 0.4
25/03:30pm 14.0 6.6 1.6 43 5.4 WSW 30 54 16 29 - - 0.4
25/03:16pm 12.3 3.9 1.6 48 4.6 SW 35 56 19 30 - - 0.4
25/03:00pm 14.5 6.8 2.1 43 5.5 WSW 32 48 17 26 - - 0.4
25/02:30pm 13.6 5.7 2.2 46 5.0 SW 33 50 18 27 - - 0.4
25/02:00pm 13.1 6.2 4.5 56 4.0 WSW 30 48 16 26 - - 0.4
25/01:30pm 12.2 4.7 3.2 54 4.0 SW 32 46 17 25 - - 0.2
25/01:00pm 9.6 2.3 4.4 70 2.3 WSW 32 50 17 27 - - 0.2
25/12:51pm 10.4 3.7 5.4 71 2.3 WSW 30 50 16 27 - - 0.2
25/12:30pm 12.2 6.3 3.9 57 3.7 WSW 24 37 13 20 - - 0.2
25/12:09pm 11.5 4.6 2.3 53 4.0 WSW 28 48 15 26 - - 0.2
25/12:00pm 12.5 6.8 4.7 59 3.6 W 24 35 13 19 - - 0.2
25/11:30am 11.1 5.3 4.3 63 3.1 W 24 37 13 20 - - 0.2
25/11:00am 10.2 3.9 3.7 64 2.9 W 26 37 14 20 - - 0.2
25/10:30am 10.1 3.5 4.0 66 2.7 W 28 37 15 20 - - 0.2
25/10:00am 9.3 3.4 4.1 70 2.3 W 24 35 13 19 - - 0.2
25/09:30am 9.4 4.1 5.0 74 2.0 W 22 35 12 19 - - 0.2
25/09:00am 8.3 3.4 5.1 80 1.4 W 20 33 11 18 - - 4.8
25/08:30am 7.5 1.8 5.1 85 1.1 W 24 33 13 18 - - 4.8
25/08:00am 6.8 2.4 6.5 98 0.1 WNW 19 26 10 14 - - 4.8
25/07:30am 5.9 1.7 5.8 99 0.0 WNW 17 24 9 13 - - 4.8

Other formats

Comma delimited format used in spreadsheet applications
http://www.bom.gov.au/fwo/IDV60801/IDV60801.95831.axf

JavaScript Object Notation format (JSON) in row-major order
http://www.bom.gov.au/fwo/IDV60801/IDV60801.95831.json

Data quality

Most of these data are generated automatically and are frequently updated. Quality checks on data are not normally performed. It is possible for incorrect values to appear. Refer to information at About Latest Weather Observations and please check the disclaimer before using these data.